Time;durP1;ratioP1;P1;durP2;ratioP2;P2;SDS_P1;SDS_P2;PMS_P1;PMS_P2;Temp;Humidity;BMP_temperature;BMP_pressure;BME280_temperature;BME280_humidity;BME280_pressure;Samples;Min_cycle;Max_cycle;Signal;HPM_P1;HPM_P2
2023/05/25 00:00:19;;;;;;;9.77;3.80;;;14.10;97.60;;;;;;5002866;28;20037;-57
2023/05/25 00:02:45;;;;;;;13.60;4.45;;;14.10;97.70;;;;;;5002335;28;20050;-57
2023/05/25 00:05:12;;;;;;;13.55;3.65;;;14.10;97.70;;;;;;5004750;28;20045;-57
2023/05/25 00:07:38;;;;;;;9.80;3.60;;;14.10;97.70;;;;;;5007157;28;20096;-57
2023/05/25 00:10:05;;;;;;;7.38;3.03;;;14.20;97.80;;;;;;5004900;28;20080;-57
2023/05/25 00:12:32;;;;;;;12.18;3.47;;;14.20;97.70;;;;;;5008628;28;20051;-57
2023/05/25 00:14:57;;;;;;;6.05;3.63;;;14.20;97.80;;;;;;5006753;28;20133;-57
2023/05/25 00:17:23;;;;;;;8.07;3.65;;;14.20;97.80;;;;;;5004502;28;21659;-56
2023/05/25 00:19:49;;;;;;;5.32;3.60;;;14.10;97.80;;;;;;5011662;28;21265;-57
2023/05/25 00:22:15;;;;;;;8.45;4.25;;;14.10;97.80;;;;;;5004644;28;20054;-57
2023/05/25 00:24:41;;;;;;;6.57;3.35;;;14.10;97.80;;;;;;5005829;28;20462;-57
2023/05/25 00:27:06;;;;;;;7.57;3.55;;;14.00;97.90;;;;;;5006882;28;20493;-56
2023/05/25 00:29:34;;;;;;;7.13;3.60;;;14.00;98.00;;;;;;5007240;28;20053;-57
2023/05/25 00:32:00;;;;;;;7.05;3.30;;;14.00;97.90;;;;;;5005603;28;20069;-57
2023/05/25 00:34:26;;;;;;;8.18;4.63;;;13.90;98.00;;;;;;5007531;28;20056;-57
2023/05/25 00:36:53;;;;;;;11.30;3.83;;;13.90;98.10;;;;;;5005748;28;20056;-57
2023/05/25 00:39:20;;;;;;;10.48;4.90;;;13.80;98.20;;;;;;5004727;28;20088;-57
2023/05/25 00:41:47;;;;;;;6.93;4.22;;;13.80;98.30;;;;;;5006231;28;20093;-57
2023/05/25 00:44:14;;;;;;;6.65;3.33;;;13.80;98.30;;;;;;5002528;28;20186;-57
2023/05/25 00:46:50;;;;;;;11.95;3.17;;;13.80;98.30;;;;;;5005323;28;20134;-57
2023/05/25 00:49:23;;;;;;;10.82;4.78;;;13.70;98.30;;;;;;5003283;28;20088;-56
2023/05/25 00:51:51;;;;;;;9.48;3.33;;;13.70;98.40;;;;;;5005599;28;20068;-58
2023/05/25 00:54:18;;;;;;;12.48;3.75;;;13.60;98.40;;;;;;5002733;28;21358;-57
2023/05/25 00:56:52;;;;;;;9.73;3.42;;;13.60;98.60;;;;;;5001008;28;20134;-57
2023/05/25 00:59:27;;;;;;;9.93;4.32;;;13.60;98.70;;;;;;5032504;28;20045;-57
2023/05/25 01:01:54;;;;;;;8.02;3.80;;;13.50;98.90;;;;;;5006327;28;20057;-57
2023/05/25 01:04:22;;;;;;;7.15;2.90;;;13.40;99.00;;;;;;5003465;28;20097;-57
2023/05/25 01:06:49;;;;;;;6.85;4.00;;;13.40;99.00;;;;;;5004631;28;20553;-57
2023/05/25 01:09:20;;;;;;;9.05;3.70;;;13.40;99.10;;;;;;5004421;28;20052;-57
2023/05/25 01:11:50;;;;;;;13.70;3.97;;;13.40;99.20;;;;;;5005671;28;20111;-56
2023/05/25 01:14:20;;;;;;;7.88;4.65;;;13.40;99.20;;;;;;5015985;28;22276;-57
2023/05/25 01:16:47;;;;;;;7.28;4.22;;;13.30;99.30;;;;;;5004365;28;20050;-57
2023/05/25 01:19:13;;;;;;;8.48;4.78;;;13.30;99.30;;;;;;5003289;28;20049;-57
2023/05/25 01:21:50;;;;;;;7.45;4.57;;;13.30;99.30;;;;;;5004621;28;20045;-57
2023/05/25 01:24:44;;;;;;;10.63;4.50;;;13.30;99.40;;;;;;5020141;28;20097;-57
2023/05/25 01:27:31;;;;;;;8.30;3.78;;;13.30;99.50;;;;;;5018470;28;20053;-57
2023/05/25 01:29:58;;;;;;;8.73;4.25;;;13.20;99.60;;;;;;5017154;28;20142;-57
2023/05/25 01:32:25;;;;;;;6.90;3.17;;;13.10;99.80;;;;;;5019355;28;20724;-57
2023/05/25 01:34:53;;;;;;;9.05;3.53;;;13.10;99.90;;;;;;5021962;28;20053;-57
2023/05/25 01:37:22;;;;;;;10.45;3.58;;;13.00;99.90;;;;;;5021408;28;20107;-56
2023/05/25 01:39:47;;;;;;;13.50;5.88;;;12.90;99.90;;;;;;5018216;28;20053;-56
2023/05/25 01:42:13;;;;;;;14.30;5.35;;;12.90;99.90;;;;;;5020726;28;20049;-57
2023/05/25 01:44:39;;;;;;;9.43;4.30;;;12.90;99.90;;;;;;5019539;28;20073;-57
2023/05/25 01:47:30;;;;;;;8.75;4.45;;;12.90;99.90;;;;;;5016945;28;20599;-57
2023/05/25 01:50:06;;;;;;;11.35;3.60;;;12.90;99.90;;;;;;5020621;28;20132;-57
2023/05/25 01:52:37;;;;;;;9.70;5.28;;;12.90;99.90;;;;;;5022566;28;20163;-57
2023/05/25 01:55:11;;;;;;;10.52;4.38;;;12.80;99.90;;;;;;5021818;28;20201;-57
2023/05/25 01:57:41;;;;;;;14.15;4.60;;;12.80;99.90;;;;;;5019523;28;20057;-57
2023/05/25 02:00:10;;;;;;;8.93;3.72;;;12.80;99.90;;;;;;5051092;28;20056;-57
2023/05/25 02:02:39;;;;;;;12.07;5.40;;;12.70;99.90;;;;;;5051636;28;20097;-56
2023/05/25 02:05:06;;;;;;;9.88;3.95;;;12.70;99.90;;;;;;5017637;28;20092;-57
2023/05/25 02:07:32;;;;;;;12.10;5.20;;;12.80;99.90;;;;;;5018184;28;20041;-57
2023/05/25 02:09:58;;;;;;;11.13;5.10;;;12.80;99.90;;;;;;5023307;28;20045;-57
2023/05/25 02:12:24;;;;;;;11.60;4.43;;;12.80;99.90;;;;;;5021292;28;20041;-57
2023/05/25 02:14:50;;;;;;;11.25;4.93;;;12.80;99.90;;;;;;5020617;28;21129;-56
2023/05/25 02:17:19;;;;;;;15.55;4.75;;;12.80;99.90;;;;;;5021548;28;20135;-57
2023/05/25 02:19:47;;;;;;;11.18;4.55;;;12.80;99.90;;;;;;5021662;28;20034;-57
2023/05/25 02:22:13;;;;;;;7.82;3.65;;;12.80;99.90;;;;;;5021375;28;21665;-57
2023/05/25 02:24:38;;;;;;;11.15;5.10;;;12.70;99.90;;;;;;5022549;28;20041;-57
2023/05/25 02:27:05;;;;;;;10.85;5.45;;;12.70;99.90;;;;;;5021047;28;20165;-57
2023/05/25 02:29:31;;;;;;;7.82;4.47;;;12.70;99.90;;;;;;5022551;28;20046;-57
2023/05/25 02:31:57;;;;;;;9.18;4.38;;;12.70;99.90;;;;;;5020139;28;20089;-57
2023/05/25 02:34:23;;;;;;;12.43;5.40;;;12.70;99.90;;;;;;5021842;28;20069;-56
2023/05/25 02:36:49;;;;;;;8.68;5.68;;;12.70;99.90;;;;;;5021608;28;20046;-57
2023/05/25 02:39:15;;;;;;;7.70;4.30;;;12.60;99.90;;;;;;5018948;28;20038;-57
2023/05/25 02:41:41;;;;;;;11.50;5.45;;;12.60;99.90;;;;;;5020449;28;20042;-56
2023/05/25 02:44:07;;;;;;;10.30;5.57;;;12.60;99.90;;;;;;5017604;28;20038;-57
2023/05/25 02:46:33;;;;;;;12.77;6.07;;;12.60;99.90;;;;;;5017926;28;20084;-57
2023/05/25 02:48:59;;;;;;;11.57;4.03;;;12.50;99.90;;;;;;5021880;28;20447;-57
2023/05/25 02:51:26;;;;;;;13.02;5.80;;;12.50;99.90;;;;;;5018557;28;20121;-57
2023/05/25 02:53:52;;;;;;;8.80;4.10;;;12.50;99.90;;;;;;5019641;28;20172;-57
2023/05/25 02:56:18;;;;;;;13.80;5.63;;;12.50;99.90;;;;;;5019251;28;20049;-57
2023/05/25 02:58:43;;;;;;;9.57;4.82;;;12.40;99.90;;;;;;5019078;28;20042;-57
2023/05/25 03:01:09;;;;;;;10.60;6.47;;;12.40;99.90;;;;;;5020776;28;20173;-57
2023/05/25 03:03:38;;;;;;;14.05;5.57;;;12.40;99.90;;;;;;5019265;28;21676;-56
2023/05/25 03:06:04;;;;;;;11.82;5.35;;;12.30;99.90;;;;;;5021149;28;20038;-57
2023/05/25 03:08:30;;;;;;;12.75;6.18;;;12.30;99.90;;;;;;5018366;28;20042;-56
2023/05/25 03:10:55;;;;;;;11.20;6.00;;;12.40;99.90;;;;;;5021149;28;20041;-57
2023/05/25 03:13:21;;;;;;;12.13;5.63;;;11.90;99.90;;;;;;5016918;28;20077;-57
2023/05/25 03:15:47;;;;;;;10.35;6.13;;;12.30;99.90;;;;;;5020285;28;20577;-57
2023/05/25 03:18:13;;;;;;;15.55;6.30;;;12.30;99.90;;;;;;5019059;28;20535;-57
2023/05/25 03:20:40;;;;;;;11.27;6.43;;;12.40;99.90;;;;;;5050592;28;20729;-57
2023/05/25 03:23:06;;;;;;;13.52;7.10;;;12.30;99.90;;;;;;5018678;28;20659;-57
2023/05/25 03:25:31;;;;;;;12.10;4.93;;;12.30;99.90;;;;;;5021243;28;20236;-56
2023/05/25 03:27:57;;;;;;;14.73;6.03;;;12.30;99.90;;;;;;5014783;28;20954;-57
2023/05/25 03:30:23;;;;;;;12.93;5.45;;;12.20;99.90;;;;;;5047547;28;20041;-57
2023/05/25 03:32:49;;;;;;;13.15;5.65;;;12.20;99.90;;;;;;5018689;28;20038;-57
2023/05/25 03:35:15;;;;;;;13.85;5.30;;;12.20;99.90;;;;;;5024495;28;20134;-56
2023/05/25 03:37:40;;;;;;;12.93;5.57;;;12.10;99.90;;;;;;5021886;28;20456;-57
2023/05/25 03:40:08;;;;;;;15.68;6.43;;;12.10;99.90;;;;;;5022798;28;20146;-57
2023/05/25 03:42:34;;;;;;;10.70;5.20;;;12.00;99.90;;;;;;5020919;28;20539;-56
2023/05/25 03:45:00;;;;;;;11.52;6.47;;;12.00;99.90;;;;;;5019760;28;20058;-57
2023/05/25 03:47:26;;;;;;;9.10;4.40;;;12.00;99.90;;;;;;5019204;28;20492;-56
2023/05/25 03:49:51;;;;;;;9.82;4.25;;;12.00;99.90;;;;;;5022220;28;20038;-56
2023/05/25 03:52:17;;;;;;;12.60;5.20;;;12.00;99.90;;;;;;5023297;28;20069;-57
2023/05/25 03:54:43;;;;;;;13.10;5.88;;;11.90;99.90;;;;;;5005218;28;20057;-56
2023/05/25 03:57:08;;;;;;;7.82;3.40;;;11.90;99.90;;;;;;5022383;28;20046;-57
2023/05/25 03:59:34;;;;;;;14.80;6.03;;;11.90;99.90;;;;;;5022391;28;20049;-57
2023/05/25 04:02:00;;;;;;;14.80;5.30;;;11.90;99.90;;;;;;5020240;28;20042;-57
2023/05/25 04:04:26;;;;;;;10.82;7.35;;;11.90;99.90;;;;;;5053254;28;20598;-57
2023/05/25 04:06:52;;;;;;;14.48;6.32;;;11.90;99.90;;;;;;5023280;28;20041;-57
2023/05/25 04:09:18;;;;;;;18.38;6.68;;;11.90;99.90;;;;;;5018997;28;20061;-57
2023/05/25 04:11:45;;;;;;;15.75;7.03;;;11.80;99.90;;;;;;5023689;28;20122;-57
2023/05/25 04:14:10;;;;;;;22.08;7.85;;;11.80;99.90;;;;;;5021338;28;20050;-56
2023/05/25 04:16:39;;;;;;;16.55;7.10;;;11.80;99.90;;;;;;5022186;28;20049;-56
2023/05/25 04:19:04;;;;;;;16.02;6.72;;;11.80;99.90;;;;;;5019919;28;20041;-57
2023/05/25 04:21:31;;;;;;;12.50;6.35;;;11.80;99.90;;;;;;5020697;28;20065;-56
2023/05/25 04:23:56;;;;;;;17.83;6.10;;;11.80;99.90;;;;;;5024159;28;20045;-57
2023/05/25 04:26:25;;;;;;;21.95;7.03;;;11.80;99.90;;;;;;5021043;28;20515;-56
2023/05/25 04:28:53;;;;;;;15.80;7.28;;;11.80;99.90;;;;;;5020737;28;21190;-57
2023/05/25 04:31:19;;;;;;;13.07;5.38;;;11.80;99.90;;;;;;5020066;28;20585;-57
2023/05/25 04:33:45;;;;;;;10.02;5.88;;;11.80;99.90;;;;;;5024831;28;20054;-56
2023/05/25 04:36:12;;;;;;;14.70;5.63;;;11.80;99.90;;;;;;5017654;28;20050;-56
2023/05/25 04:38:39;;;;;;;13.43;6.70;;;11.80;99.90;;;;;;5024667;28;20042;-56
2023/05/25 04:41:05;;;;;;;14.88;5.97;;;11.80;99.90;;;;;;5022570;28;20042;-57
2023/05/25 04:43:31;;;;;;;11.40;5.57;;;11.80;99.90;;;;;;5017995;28;20045;-57
2023/05/25 04:45:58;;;;;;;13.43;7.90;;;11.80;99.90;;;;;;5017200;28;20536;-57
2023/05/25 04:48:27;;;;;;;22.25;6.97;;;11.80;99.90;;;;;;5017117;28;20762;-56
2023/05/25 04:50:54;;;;;;;9.13;6.15;;;11.80;99.90;;;;;;5020015;28;20224;-56
2023/05/25 04:53:22;;;;;;;14.18;6.93;;;11.80;99.90;;;;;;5019529;28;20517;-57
2023/05/25 04:55:49;;;;;;;10.70;4.13;;;11.80;99.90;;;;;;5020511;28;20463;-56
2023/05/25 04:58:14;;;;;;;17.30;7.32;;;11.90;99.90;;;;;;5021309;28;20038;-57
2023/05/25 05:00:40;;;;;;;12.02;6.22;;;11.90;99.90;;;;;;5021814;28;20124;-57
2023/05/25 05:03:06;;;;;;;15.00;7.10;;;11.90;99.90;;;;;;5051229;28;20609;-56
2023/05/25 05:05:33;;;;;;;10.85;5.93;;;11.90;99.90;;;;;;5009143;28;20058;-57
2023/05/25 05:08:00;;;;;;;10.27;5.47;;;11.90;99.90;;;;;;5016396;28;20133;-56
2023/05/25 05:10:25;;;;;;;25.52;7.63;;;11.90;99.90;;;;;;5022078;28;20116;-57
2023/05/25 05:12:51;;;;;;;17.05;6.50;;;11.90;99.90;;;;;;5021056;28;20041;-56
2023/05/25 05:15:17;;;;;;;19.60;6.75;;;11.90;99.90;;;;;;5018363;28;20042;-57
2023/05/25 05:17:43;;;;;;;12.68;6.53;;;11.80;99.90;;;;;;5015560;28;20057;-57
2023/05/25 05:20:09;;;;;;;10.88;6.07;;;11.90;99.90;;;;;;5019213;28;20511;-57
2023/05/25 05:22:36;;;;;;;16.55;7.95;;;11.90;99.90;;;;;;5015217;28;20843;-57
2023/05/25 05:25:03;;;;;;;12.77;5.95;;;11.80;99.90;;;;;;5018137;28;20053;-57
2023/05/25 05:27:28;;;;;;;13.65;6.32;;;11.90;99.90;;;;;;5018944;28;20177;-57
2023/05/25 05:29:54;;;;;;;16.90;6.72;;;11.90;99.90;;;;;;5021975;28;20390;-57
2023/05/25 05:32:20;;;;;;;14.60;7.25;;;11.90;99.90;;;;;;5016276;28;20046;-57
2023/05/25 05:34:46;;;;;;;12.80;6.63;;;11.90;99.90;;;;;;5020128;28;20048;-57
2023/05/25 05:37:11;;;;;;;15.88;5.97;;;11.90;99.90;;;;;;5021558;28;20598;-56
2023/05/25 05:39:37;;;;;;;14.45;7.53;;;11.90;99.90;;;;;;5020672;28;20100;-57
2023/05/25 05:42:03;;;;;;;16.67;6.53;;;11.90;99.90;;;;;;5021645;28;20046;-57
2023/05/25 05:44:29;;;;;;;18.38;5.93;;;12.00;99.90;;;;;;5022633;28;20073;-57
2023/05/25 05:46:58;;;;;;;19.42;7.90;;;12.00;99.90;;;;;;5018751;28;20147;-58
2023/05/25 05:49:26;;;;;;;15.88;6.88;;;12.00;99.90;;;;;;5015444;28;20057;-57
2023/05/25 05:51:52;;;;;;;8.20;5.38;;;12.00;99.90;;;;;;5019029;28;21213;-56
2023/05/25 05:54:17;;;;;;;12.98;5.95;;;11.90;99.90;;;;;;5022031;28;20049;-57
2023/05/25 05:56:43;;;;;;;12.27;7.75;;;12.00;99.90;;;;;;5021907;28;20045;-57
2023/05/25 05:59:10;;;;;;;16.15;5.95;;;12.00;99.90;;;;;;5022986;28;20049;-57
2023/05/25 06:01:36;;;;;;;14.02;6.32;;;12.00;99.90;;;;;;5022614;28;20056;-57
2023/05/25 06:04:05;;;;;;;15.20;8.10;;;12.00;99.90;;;;;;5023932;28;20080;-57
2023/05/25 06:06:33;;;;;;;12.77;5.85;;;12.00;99.90;;;;;;5019900;28;20097;-57
2023/05/25 06:09:00;;;;;;;11.48;4.25;;;12.00;99.90;;;;;;5022966;28;20045;-57
2023/05/25 06:11:26;;;;;;;16.35;6.85;;;12.10;99.90;;;;;;5022595;28;20212;-57
2023/05/25 06:13:51;;;;;;;17.75;6.20;;;12.10;99.90;;;;;;5021354;28;20053;-57
2023/05/25 06:16:18;;;;;;;11.13;7.13;;;12.10;99.90;;;;;;5022290;28;20065;-57
2023/05/25 06:18:43;;;;;;;13.02;5.95;;;12.10;99.90;;;;;;5022981;28;20115;-57
2023/05/25 06:21:09;;;;;;;23.33;7.53;;;12.10;99.90;;;;;;5023918;28;20116;-57
2023/05/25 06:23:35;;;;;;;12.23;5.25;;;12.20;99.90;;;;;;5023501;28;20136;-57
2023/05/25 06:26:04;;;;;;;9.48;5.05;;;12.30;99.90;;;;;;5023466;28;20041;-57
2023/05/25 06:28:31;;;;;;;10.27;4.13;;;12.10;99.90;;;;;;5021738;28;20447;-57
2023/05/25 06:30:56;;;;;;;13.85;5.65;;;12.30;99.90;;;;;;5020583;28;20527;-60
2023/05/25 06:33:22;;;;;;;11.00;6.70;;;12.30;99.90;;;;;;5019708;28;20046;-60
2023/05/25 06:35:48;;;;;;;14.95;7.07;;;12.30;99.90;;;;;;5006222;28;20507;-61
2023/05/25 06:38:14;;;;;;;17.95;7.30;;;12.30;99.90;;;;;;5023765;28;20046;-61
2023/05/25 06:40:40;;;;;;;8.73;4.53;;;12.40;99.90;;;;;;5018925;28;20042;-60
2023/05/25 06:43:06;;;;;;;11.23;4.53;;;12.40;99.90;;;;;;5015312;28;20042;-60
2023/05/25 06:45:31;;;;;;;11.35;5.70;;;12.40;99.90;;;;;;5021368;28;20050;-60
2023/05/25 06:47:57;;;;;;;15.05;7.55;;;12.40;99.90;;;;;;5020007;28;20512;-59
2023/05/25 06:50:23;;;;;;;10.00;4.30;;;12.50;99.90;;;;;;5013599;28;20049;-60
2023/05/25 06:52:49;;;;;;;11.93;5.63;;;12.50;99.90;;;;;;5021170;28;20049;-60
2023/05/25 06:55:15;;;;;;;13.07;6.30;;;12.50;99.90;;;;;;5020032;28;20049;-60
2023/05/25 06:57:42;;;;;;;13.07;6.20;;;12.60;99.90;;;;;;5020848;28;20057;-59
2023/05/25 07:00:10;;;;;;;8.88;5.20;;;12.60;99.90;;;;;;5022635;28;20140;-59
2023/05/25 07:02:36;;;;;;;12.40;5.88;;;12.60;99.90;;;;;;5025124;28;20048;-59
2023/05/25 07:05:06;;;;;;;12.00;4.40;;;12.60;99.90;;;;;;5026887;28;20835;-59
2023/05/25 07:07:32;;;;;;;12.98;5.88;;;12.70;99.90;;;;;;5026109;28;20045;-59
2023/05/25 07:09:58;;;;;;;11.65;5.55;;;12.70;99.90;;;;;;5041404;28;20156;-60
2023/05/25 07:12:23;;;;;;;8.27;4.47;;;12.80;99.90;;;;;;5024996;28;20052;-59
2023/05/25 07:14:49;;;;;;;13.63;6.35;;;12.80;99.90;;;;;;5025398;28;20148;-60
2023/05/25 07:17:15;;;;;;;14.30;5.88;;;12.80;99.90;;;;;;5024675;28;20037;-61
2023/05/25 07:19:42;;;;;;;11.10;6.05;;;12.80;99.90;;;;;;5026254;28;20649;-59
2023/05/25 07:22:11;;;;;;;18.83;6.65;;;12.90;99.90;;;;;;5024541;28;20116;-60
2023/05/25 07:24:37;;;;;;;11.73;5.63;;;12.90;99.90;;;;;;5027542;28;20041;-60
2023/05/25 07:27:03;;;;;;;19.25;5.07;;;13.00;99.90;;;;;;5057952;28;20068;-60
2023/05/25 07:29:29;;;;;;;12.07;6.20;;;13.00;99.90;;;;;;5028359;28;21804;-60
2023/05/25 07:31:54;;;;;;;15.68;6.75;;;13.10;99.90;;;;;;5025620;28;20045;-60
2023/05/25 07:34:20;;;;;;;8.40;4.60;;;13.10;99.90;;;;;;5026576;28;20088;-60
2023/05/25 07:36:46;;;;;;;10.75;4.30;;;13.10;99.90;;;;;;5027081;28;20116;-60
2023/05/25 07:39:12;;;;;;;12.60;5.00;;;13.20;99.90;;;;;;5027123;28;20824;-60
2023/05/25 07:41:38;;;;;;;10.48;4.85;;;13.20;99.90;;;;;;5026501;28;20045;-60
2023/05/25 07:44:04;;;;;;;15.63;3.53;;;13.20;99.90;;;;;;5028185;28;20049;-60
2023/05/25 07:46:30;;;;;;;10.60;3.70;;;13.30;99.90;;;;;;5026181;28;20058;-60
2023/05/25 07:48:58;;;;;;;10.35;4.18;;;13.30;99.90;;;;;;5027396;28;20125;-60
2023/05/25 07:51:27;;;;;;;12.48;3.92;;;13.30;99.90;;;;;;5026514;28;20193;-60
2023/05/25 07:53:55;;;;;;;6.55;3.83;;;13.30;99.90;;;;;;5025834;28;20049;-59
2023/05/25 07:56:21;;;;;;;5.80;3.83;;;13.40;99.90;;;;;;5025126;28;20045;-60
2023/05/25 07:58:47;;;;;;;25.48;4.32;;;13.40;99.90;;;;;;5058160;28;20042;-60
2023/05/25 08:01:13;;;;;;;11.68;3.85;;;13.50;99.90;;;;;;5024891;28;20038;-59
2023/05/25 08:03:39;;;;;;;11.00;4.43;;;13.50;99.90;;;;;;5024898;28;20086;-60
2023/05/25 08:06:05;;;;;;;16.63;4.00;;;13.60;99.90;;;;;;5026418;28;20521;-59
2023/05/25 08:08:31;;;;;;;13.90;4.10;;;13.60;99.90;;;;;;5025645;28;20057;-60
2023/05/25 08:10:56;;;;;;;13.52;4.95;;;13.60;99.90;;;;;;5026030;28;20483;-60
2023/05/25 08:13:22;;;;;;;8.68;3.97;;;13.70;99.90;;;;;;5025112;28;20077;-60
2023/05/25 08:15:48;;;;;;;12.27;4.60;;;13.70;99.90;;;;;;5023931;28;20073;-59
2023/05/25 08:18:14;;;;;;;9.35;3.83;;;13.80;99.90;;;;;;5026453;28;20046;-60
2023/05/25 08:20:40;;;;;;;10.55;3.55;;;13.80;99.90;;;;;;5026293;28;20041;-60
2023/05/25 08:23:07;;;;;;;11.30;3.65;;;13.90;99.90;;;;;;5026944;28;20045;-60
2023/05/25 08:25:33;;;;;;;10.88;4.28;;;13.90;99.90;;;;;;5041708;28;20125;-60
2023/05/25 08:27:58;;;;;;;8.75;4.35;;;13.90;99.90;;;;;;5025815;28;20046;-60
2023/05/25 08:30:24;;;;;;;7.05;3.85;;;14.00;99.90;;;;;;5025212;28;20452;-59
2023/05/25 08:32:50;;;;;;;9.77;3.08;;;14.10;99.90;;;;;;5028185;28;20045;-60
2023/05/25 08:35:16;;;;;;;12.05;4.03;;;14.10;99.90;;;;;;5025998;28;20621;-60
2023/05/25 08:37:42;;;;;;;13.23;3.53;;;14.10;99.90;;;;;;5025708;28;20540;-59
2023/05/25 08:40:14;;;;;;;13.43;3.70;;;14.20;99.90;;;;;;5027853;28;20196;-61
2023/05/25 08:42:44;;;;;;;16.42;4.47;;;14.20;99.90;;;;;;5025272;28;20522;-60
2023/05/25 08:45:11;;;;;;;6.72;3.53;;;14.20;99.90;;;;;;5025417;28;20053;-60
2023/05/25 08:47:41;;;;;;;12.93;3.15;;;14.30;99.90;;;;;;5025232;28;20049;-61
2023/05/25 08:50:09;;;;;;;10.07;3.83;;;14.30;99.90;;;;;;5025669;28;20052;-60
2023/05/25 08:52:37;;;;;;;7.40;2.60;;;14.30;99.90;;;;;;5026892;28;20037;-59
2023/05/25 08:55:05;;;;;;;6.70;2.90;;;14.40;99.90;;;;;;5025065;28;20049;-60
2023/05/25 08:57:49;;;;;;;7.38;3.13;;;14.40;99.60;;;;;;5024070;28;20046;-60
2023/05/25 09:00:17;;;;;;;13.60;3.92;;;14.50;99.80;;;;;;5026017;28;20563;-60
2023/05/25 09:02:54;;;;;;;8.10;3.30;;;14.60;98.50;;;;;;5026208;28;20033;-59
2023/05/25 09:05:21;;;;;;;18.83;5.32;;;14.60;98.30;;;;;;5024586;28;20048;-60
2023/05/25 09:07:48;;;;;;;15.05;4.57;;;14.60;98.20;;;;;;5025884;28;20518;-60
2023/05/25 09:10:15;;;;;;;6.85;4.45;;;14.70;98.20;;;;;;5057227;28;20492;-61
2023/05/25 09:12:42;;;;;;;7.07;3.40;;;14.70;98.00;;;;;;5024382;28;20045;-60
2023/05/25 09:15:11;;;;;;;10.63;3.95;;;14.70;97.70;;;;;;4993568;28;20053;-60
2023/05/25 09:17:37;;;;;;;12.43;2.92;;;14.70;97.70;;;;;;5025501;28;20049;-61
2023/05/25 09:20:03;;;;;;;11.65;3.13;;;14.80;97.30;;;;;;5010411;28;21151;-60
2023/05/25 09:22:29;;;;;;;10.77;5.63;;;14.80;97.00;;;;;;5025057;28;20889;-61
2023/05/25 09:24:55;;;;;;;12.50;3.78;;;14.80;96.80;;;;;;5026645;28;20045;-60
2023/05/25 09:27:22;;;;;;;9.55;3.17;;;14.90;96.80;;;;;;5024774;28;20049;-60
2023/05/25 09:29:49;;;;;;;6.65;3.60;;;14.90;96.60;;;;;;5026600;28;20064;-61
2023/05/25 09:32:15;;;;;;;6.03;3.25;;;15.00;96.30;;;;;;5025016;28;20495;-61
2023/05/25 09:34:45;;;;;;;12.15;3.55;;;15.00;96.20;;;;;;5025001;28;20091;-60
2023/05/25 09:37:15;;;;;;;11.07;3.25;;;15.10;95.90;;;;;;5024380;28;20539;-60
2023/05/25 09:39:42;;;;;;;11.23;3.50;;;15.10;95.80;;;;;;5055829;28;20050;-61
2023/05/25 09:42:09;;;;;;;16.67;4.75;;;15.10;95.80;;;;;;5024876;28;20061;-60
2023/05/25 09:44:35;;;;;;;8.70;3.08;;;15.20;95.70;;;;;;5024101;28;20363;-60
2023/05/25 09:47:01;;;;;;;8.30;3.72;;;15.20;95.80;;;;;;5024458;28;20842;-62
2023/05/25 09:49:27;;;;;;;6.70;2.67;;;15.30;95.40;;;;;;5024398;28;20163;-60
2023/05/25 09:51:53;;;;;;;13.18;5.38;;;15.30;95.30;;;;;;5025620;28;20495;-60
2023/05/25 09:54:24;;;;;;;11.57;3.90;;;15.30;95.40;;;;;;5025114;28;20049;-61
2023/05/25 09:56:50;;;;;;;10.70;3.38;;;15.40;94.90;;;;;;5025387;28;20069;-61
2023/05/25 09:59:16;;;;;;;8.77;3.03;;;15.40;94.80;;;;;;5025376;28;20120;-61
2023/05/25 10:01:43;;;;;;;9.85;4.10;;;15.40;95.00;;;;;;5024105;28;20042;-61
2023/05/25 10:04:09;;;;;;;11.88;4.93;;;15.50;95.00;;;;;;5025120;28;20042;-60
2023/05/25 10:06:37;;;;;;;5.28;2.25;;;15.60;94.80;;;;;;5024881;28;20042;-62
2023/05/25 10:09:05;;;;;;;8.18;3.10;;;15.60;94.60;;;;;;5023407;28;20045;-61
2023/05/25 10:11:36;;;;;;;7.88;3.13;;;15.60;94.10;;;;;;5023783;28;20093;-60
2023/05/25 10:14:06;;;;;;;7.60;2.70;;;15.60;93.90;;;;;;5024368;28;20534;-61
2023/05/25 10:16:33;;;;;;;9.13;2.65;;;15.60;93.80;;;;;;5022652;28;20042;-60
2023/05/25 10:19:11;;;;;;;9.27;3.20;;;15.70;93.50;;;;;;5024254;28;20072;-62
2023/05/25 10:21:38;;;;;;;9.98;4.30;;;15.70;93.30;;;;;;5025382;28;20061;-61
2023/05/25 10:24:11;;;;;;;10.30;4.00;;;15.80;93.30;;;;;;5022944;28;20045;-60
2023/05/25 10:26:41;;;;;;;7.15;3.20;;;15.80;93.30;;;;;;5023562;28;20041;-60
2023/05/25 10:29:07;;;;;;;7.88;3.00;;;15.90;92.80;;;;;;5023245;28;20092;-61
2023/05/25 10:31:36;;;;;;;8.85;3.00;;;15.90;92.90;;;;;;5022209;28;20897;-60
2023/05/25 10:34:02;;;;;;;8.25;2.13;;;16.00;92.80;;;;;;5022606;28;20045;-60
2023/05/25 10:36:30;;;;;;;8.25;3.25;;;16.00;92.20;;;;;;5023577;28;20046;-60
2023/05/25 10:38:57;;;;;;;10.63;3.50;;;16.00;91.90;;;;;;5025430;28;20041;-60
2023/05/25 10:41:23;;;;;;;4.15;2.83;;;16.10;91.90;;;;;;5023800;28;20038;-60
2023/05/25 10:43:49;;;;;;;7.05;3.10;;;16.10;92.00;;;;;;5027271;28;20071;-60
2023/05/25 10:46:16;;;;;;;6.50;2.13;;;16.10;92.00;;;;;;5025383;28;20050;-60
2023/05/25 10:48:50;;;;;;;7.63;2.33;;;16.20;91.80;;;;;;5028056;28;21482;-61
2023/05/25 10:51:19;;;;;;;6.35;2.65;;;16.20;91.70;;;;;;5026270;28;20800;-60
2023/05/25 10:53:57;;;;;;;9.98;3.70;;;16.30;91.80;;;;;;5028228;28;20045;-61
2023/05/25 10:56:22;;;;;;;8.35;2.58;;;16.30;91.70;;;;;;5026137;28;20679;-61
2023/05/25 10:58:48;;;;;;;7.68;2.47;;;16.40;91.50;;;;;;5028678;28;20052;-60
2023/05/25 11:01:14;;;;;;;8.98;2.55;;;16.40;91.30;;;;;;5027769;28;20420;-61
2023/05/25 11:03:43;;;;;;;5.78;2.85;;;16.50;91.40;;;;;;5027070;28;20075;-60
2023/05/25 11:06:16;;;;;;;5.65;3.70;;;16.50;91.40;;;;;;5026998;28;20041;-61
2023/05/25 11:09:05;;;;;;;6.32;1.65;;;16.50;91.40;;;;;;5028272;28;20760;-60
2023/05/25 11:11:45;;;;;;;6.65;3.28;;;16.60;91.10;;;;;;5026529;28;20134;-61
2023/05/25 11:14:22;;;;;;;7.88;2.50;;;16.60;90.90;;;;;;5027154;28;20049;-61
2023/05/25 11:17:08;;;;;;;6.90;2.92;;;16.60;90.70;;;;;;5026725;28;20587;-61
2023/05/25 11:19:47;;;;;;;15.10;3.35;;;16.60;90.80;;;;;;5025638;28;20049;-61
2023/05/25 11:22:21;;;;;;;8.00;2.70;;;16.70;90.80;;;;;;5024912;28;20049;-60
2023/05/25 11:24:48;;;;;;;4.05;1.83;;;16.70;90.80;;;;;;5027057;28;20037;-60
2023/05/25 11:27:14;;;;;;;8.85;3.25;;;16.80;90.40;;;;;;5025167;28;20046;-61
2023/05/25 11:29:40;;;;;;;5.28;2.72;;;16.80;90.20;;;;;;5027073;28;20508;-60
2023/05/25 11:32:13;;;;;;;10.38;2.83;;;16.90;90.30;;;;;;5024189;28;20037;-60
2023/05/25 11:34:45;;;;;;;9.98;2.20;;;16.90;90.20;;;;;;5028149;28;20088;-60
2023/05/25 11:37:12;;;;;;;;;;;17.00;90.20;;;;;;5025052;28;20054;-60
2023/05/25 11:39:38;;;;;;;3.85;2.10;;;17.10;90.30;;;;;;5026720;28;19928;-61
2023/05/25 11:42:10;;;;;;;7.93;4.38;;;17.00;90.20;;;;;;5023238;28;20654;-61
2023/05/25 11:44:36;;;;;;;5.75;2.03;;;17.00;90.00;;;;;;5027582;28;21309;-60
2023/05/25 11:47:07;;;;;;;6.97;2.60;;;17.10;90.00;;;;;;5022786;28;20099;-60
2023/05/25 11:49:34;;;;;;;5.97;2.65;;;17.10;89.60;;;;;;5026010;28;20124;-61
2023/05/25 11:52:07;;;;;;;7.78;3.05;;;17.10;89.80;;;;;;5021533;28;20042;-61
2023/05/25 11:54:34;;;;;;;8.77;2.97;;;17.20;89.70;;;;;;5023966;28;20052;-61
2023/05/25 11:57:01;;;;;;;8.50;2.58;;;17.30;89.50;;;;;;5023347;28;20140;-61
2023/05/25 11:59:28;;;;;;;9.10;3.75;;;17.30;89.30;;;;;;5024212;28;20468;-60
2023/05/25 12:02:01;;;;;;;13.05;3.50;;;17.40;89.20;;;;;;5026362;28;20049;-60
2023/05/25 12:04:28;;;;;;;4.93;2.33;;;17.40;88.30;;;;;;5023919;28;20037;-61
2023/05/25 12:07:05;;;;;;;7.80;2.45;;;17.40;87.80;;;;;;5026195;28;20539;-61
2023/05/25 12:09:31;;;;;;;8.90;2.70;;;17.50;88.20;;;;;;5025078;28;20050;-60
2023/05/25 12:11:57;;;;;;;4.38;1.38;;;17.50;88.60;;;;;;5026470;28;20037;-61
2023/05/25 12:14:23;;;;;;;5.85;2.83;;;17.50;87.80;;;;;;5026139;28;20048;-60
2023/05/25 12:16:49;;;;;;;8.60;2.30;;;17.50;87.80;;;;;;5026412;28;20069;-60
2023/05/25 12:19:16;;;;;;;5.20;2.28;;;17.60;87.30;;;;;;5023019;28;20050;-60
2023/05/25 12:21:42;;;;;;;6.55;3.22;;;17.60;87.60;;;;;;5024442;28;20560;-61
2023/05/25 12:24:11;;;;;;;6.55;3.08;;;17.70;87.10;;;;;;5026067;28;20106;-60
2023/05/25 12:26:49;;;;;;;16.25;2.97;;;17.70;86.90;;;;;;5024847;28;20108;-61
2023/05/25 12:29:16;;;;;;;8.98;3.25;;;17.80;86.40;;;;;;5023253;28;20049;-61
2023/05/25 12:31:41;;;;;;;12.50;3.20;;;17.70;86.80;;;;;;5024726;28;20687;-60
2023/05/25 12:34:10;;;;;;;5.32;2.10;;;17.80;87.20;;;;;;5026936;28;20177;-60
2023/05/25 12:36:37;;;;;;;6.78;2.38;;;17.90;86.50;;;;;;5023233;28;20887;-61
2023/05/25 12:39:06;;;;;;;10.68;3.95;;;17.80;86.40;;;;;;5024406;28;20161;-61
2023/05/25 12:41:45;;;;;;;9.02;2.63;;;17.90;86.20;;;;;;5024262;28;21046;-57